aviador You're here:

KMCF Decoded Metar

TAMPA in FL, USA
Report Time2018-02-17 22:56:00
UTC Time2018-02-17 23:41:52
Flight Rules vfr VFR
Wind240° at 05 kt
W.Decomp.*RWY 22: 4.6 kt HW 2.0 kt RCW
W.Rank240° ranks 20
Current wind is below 240° avg. (6.7)
Visibility9999 m
Phenomena:N/A
Clouds:N/A
Expected CloudBase > 3,600 ft AGL from Temp-Dew spread
CeilingNone
Temp24°C (ISA +9)
Dew Point15°C (57% RH)
AAT23.8°C
QNH1023 hPa
Density Alt951 ft
Elevation13 ft
Report Wrong Elevation
Raw Report
KMCF 172256Z AUTO 24005KT 10SM CLR 24/15 A3021 RMK AO2 SLP233
T02430147 FZRANO $=

Extra information for KMCF:More info

Metar Taf Metar & Taf Last 4 Metars F.Rules Stats Wind Profile Meteogram Temp Stats Airport Information Weather charts Add Link Nearby VenuesMetar ALERT Operation Metar Decoded Social comments

AIRNAV info for KMCF